4XDNS LLHA-LLER
Flight info
| Callsign | 4XDNS |
|---|---|
| Flight time | N/A |
| Altitude | 4000 |
| Route | GALIM DAROM HOTRM BOREN FRDIS SDTYM OLGAH PELEG VINGT SFAIM APOLN ARENA HTZUK RIDNG ROKCH PARDS LLBG MRISN NTAIM BOVED NAGID YAVNE ZASHD NMASD ZDAFA NITZA ASKLN GVARM BHAIL BKAMA ZLHAV GORAL NCITY OMMER OHLIM HOVAV NEGEV TLLIM BOKER OVDAT RUHOT MESAR ZZHOR BMNUH YAHEL KTORA YOTVT SAMAR BRORA EILAT BRORA |
| Aircraft | C172/L-VD/A |
Departure
| Time | 2026-04-26 10:44 |
|---|---|
| Airport | Uri Michaeli Haifa International Airport (LLHA) |
Arrival
| Time | N/A |
|---|---|
| Airport | Ramon International Airport (LLER) |
| Time | Latitude | Longitude | Altitude | Speed | Heading |
|---|---|---|---|---|---|
| 2026-04-26 10:31 | 32.81216 | 35.04171 | 20 ft | 0 kts | 70° |
| 2026-04-26 10:37 | 32.81217 | 35.04172 | 20 ft | 1 kts | 56° |
| 2026-04-26 10:37 | 32.81217 | 35.04196 | 21 ft | 3 kts | 132° |
| 2026-04-26 10:37 | 32.81181 | 35.04199 | 21 ft | 4 kts | 172° |
| 2026-04-26 10:38 | 32.81168 | 35.04204 | 21 ft | 0 kts | 145° |
| 2026-04-26 10:39 | 32.81160 | 35.04213 | 21 ft | 5 kts | 127° |
| 2026-04-26 10:39 | 32.81158 | 35.04216 | 21 ft | 0 kts | 117° |
| 2026-04-26 10:40 | 32.81155 | 35.04228 | 21 ft | 1 kts | 93° |
| 2026-04-26 10:41 | 32.81165 | 35.04257 | 22 ft | 6 kts | 67° |
| 2026-04-26 10:41 | 32.81136 | 35.04312 | 22 ft | 17 kts | 166° |
| 2026-04-26 10:42 | 32.81016 | 35.04362 | 22 ft | 20 kts | 160° |
| 2026-04-26 10:42 | 32.80876 | 35.04428 | 22 ft | 27 kts | 160° |
| 2026-04-26 10:42 | 32.80695 | 35.04505 | 21 ft | 24 kts | 161° |
| 2026-04-26 10:42 | 32.80677 | 35.04538 | 21 ft | 17 kts | 330° |
| 2026-04-26 10:43 | 32.80926 | 35.04417 | 23 ft | 58 kts | 341° |
| 2026-04-26 10:43 | 32.81354 | 35.04206 | 97 ft | 73 kts | 338° |
| 2026-04-26 10:43 | 32.81834 | 35.03974 | 301 ft | 72 kts | 338° |
| 2026-04-26 10:43 | 32.82313 | 35.03764 | 516 ft | 74 kts | 338° |
| 2026-04-26 10:44 | 32.82807 | 35.03537 | 683 ft | 81 kts | 337° |
| 2026-04-26 10:44 | 32.83151 | 35.02996 | 850 ft | 93 kts | 284° |
| 2026-04-26 10:44 | 32.83253 | 35.02266 | 1120 ft | 92 kts | 285° |
| 2026-04-26 10:44 | 32.83396 | 35.01487 | 1242 ft | 96 kts | 285° |
| 2026-04-26 10:45 | 32.83553 | 35.00662 | 1300 ft | 104 kts | 284° |
| 2026-04-26 10:45 | 32.83679 | 34.99784 | 1291 ft | 115 kts | 281° |
| 2026-04-26 10:45 | 32.83769 | 34.98764 | 1182 ft | 121 kts | 272° |
| 2026-04-26 10:45 | 32.83637 | 34.97859 | 1382 ft | 107 kts | 256° |
| 2026-04-26 10:46 | 32.83396 | 34.96894 | 1072 ft | 130 kts | 257° |
| 2026-04-26 10:46 | 32.82972 | 34.95971 | 1018 ft | 120 kts | 241° |
| 2026-04-26 10:46 | 32.82389 | 34.95321 | 1004 ft | 119 kts | 198° |
| 2026-04-26 10:46 | 32.81571 | 34.95388 | 1002 ft | 116 kts | 169° |
| 2026-04-26 10:47 | 32.80768 | 34.95536 | 991 ft | 119 kts | 168° |
| 2026-04-26 10:47 | 32.79956 | 34.95583 | 1125 ft | 114 kts | 191° |
| 2026-04-26 10:47 | 32.79156 | 34.95517 | 1287 ft | 121 kts | 187° |
| 2026-04-26 10:47 | 32.78358 | 34.95452 | 1528 ft | 107 kts | 188° |
| 2026-04-26 10:48 | 32.77649 | 34.95365 | 1756 ft | 100 kts | 188° |
| 2026-04-26 10:48 | 32.76947 | 34.95264 | 1945 ft | 102 kts | 191° |
| 2026-04-26 10:48 | 32.76238 | 34.95121 | 2060 ft | 107 kts | 194° |
| 2026-04-26 10:48 | 32.75481 | 34.94877 | 1978 ft | 117 kts | 192° |
| 2026-04-26 10:49 | 32.74664 | 34.94650 | 1852 ft | 114 kts | 195° |
| 2026-04-26 10:49 | 32.73891 | 34.94412 | 1850 ft | 115 kts | 196° |
| 2026-04-26 10:49 | 32.73113 | 34.94186 | 1899 ft | 114 kts | 192° |
| 2026-04-26 10:49 | 32.72343 | 34.94056 | 1944 ft | 114 kts | 187° |
| 2026-04-26 10:50 | 32.71553 | 34.93969 | 1964 ft | 116 kts | 187° |
| 2026-04-26 10:50 | 32.71003 | 34.93874 | 1918 ft | 121 kts | 190° |
| 2026-04-26 10:50 | 32.69950 | 34.93623 | 2009 ft | 108 kts | 190° |
| 2026-04-26 10:50 | 32.69201 | 34.93378 | 1980 ft | 111 kts | 197° |
| 2026-04-26 10:51 | 32.68460 | 34.93137 | 1949 ft | 111 kts | 196° |
| 2026-04-26 10:51 | 32.67045 | 34.92663 | 1944 ft | 105 kts | 196° |
| 2026-04-26 10:51 | 32.66365 | 34.92434 | 1916 ft | 104 kts | 197° |
| 2026-04-26 10:52 | 32.65671 | 34.92198 | 1967 ft | 102 kts | 195° |
| 2026-04-26 10:52 | 32.64973 | 34.91976 | 1977 ft | 106 kts | 195° |
| 2026-04-26 10:52 | 32.64238 | 34.91782 | 1938 ft | 112 kts | 191° |
| 2026-04-26 10:52 | 32.63447 | 34.91650 | 1906 ft | 114 kts | 188° |
| 2026-04-26 10:53 | 32.62685 | 34.91516 | 1947 ft | 109 kts | 190° |
| 2026-04-26 10:53 | 32.61926 | 34.91380 | 1956 ft | 109 kts | 188° |
| 2026-04-26 10:53 | 32.61153 | 34.91276 | 1909 ft | 114 kts | 187° |
| 2026-04-26 10:54 | 32.59594 | 34.91036 | 1826 ft | 120 kts | 190° |
| 2026-04-26 10:54 | 32.58805 | 34.90886 | 1851 ft | 115 kts | 190° |
| 2026-04-26 10:54 | 32.58018 | 34.90738 | 1857 ft | 113 kts | 188° |
| 2026-04-26 10:54 | 32.57236 | 34.90627 | 1841 ft | 113 kts | 187° |
| 2026-04-26 10:55 | 32.56411 | 34.90532 | 1708 ft | 122 kts | 185° |
| 2026-04-26 10:55 | 32.55626 | 34.90444 | 1799 ft | 110 kts | 190° |
| 2026-04-26 10:55 | 32.54850 | 34.90284 | 1608 ft | 116 kts | 192° |
| 2026-04-26 10:55 | 32.54324 | 34.90157 | 1481 ft | 115 kts | 193° |
| 2026-04-26 10:56 | 32.53261 | 34.89884 | 1136 ft | 114 kts | 198° |
| 2026-04-26 10:56 | 32.52517 | 34.89620 | 884 ft | 106 kts | 200° |
| 2026-04-26 10:56 | 32.51840 | 34.89381 | 731 ft | 107 kts | 201° |
| 2026-04-26 10:56 | 32.51142 | 34.89140 | 785 ft | 107 kts | 201° |
| 2026-04-26 10:57 | 32.50450 | 34.88872 | 778 ft | 101 kts | 200° |
| 2026-04-26 10:57 | 32.49761 | 34.88665 | 818 ft | 101 kts | 196° |
| 2026-04-26 10:57 | 32.49079 | 34.88486 | 895 ft | 97 kts | 200° |
| 2026-04-26 10:57 | 32.48457 | 34.88215 | 950 ft | 104 kts | 202° |
| 2026-04-26 10:58 | 32.47751 | 34.87921 | 958 ft | 108 kts | 199° |
| 2026-04-26 10:58 | 32.47049 | 34.87705 | 1008 ft | 99 kts | 190° |
| 2026-04-26 10:58 | 32.46380 | 34.87661 | 920 ft | 97 kts | 183° |
| 2026-04-26 10:58 | 32.45705 | 34.87665 | 862 ft | 99 kts | 188° |
| 2026-04-26 10:59 | 32.45046 | 34.87580 | 767 ft | 90 kts | 189° |
| 2026-04-26 10:59 | 32.44439 | 34.87503 | 706 ft | 85 kts | 192° |
| 2026-04-26 10:59 | 32.43851 | 34.87408 | 647 ft | 83 kts | 193° |
| 2026-04-26 10:59 | 32.43276 | 34.87347 | 691 ft | 82 kts | 188° |
| 2026-04-26 11:00 | 32.42737 | 34.87246 | 857 ft | 81 kts | 198° |
| 2026-04-26 11:00 | 32.42170 | 34.87125 | 915 ft | 87 kts | 194° |
| 2026-04-26 11:00 | 32.41533 | 34.87015 | 967 ft | 89 kts | 193° |
| 2026-04-26 11:00 | 32.40902 | 34.86921 | 1030 ft | 97 kts | 186° |
| 2026-04-26 11:01 | 32.40264 | 34.86631 | 1096 ft | 99 kts | 209° |
| 2026-04-26 11:01 | 32.39672 | 34.86308 | 1037 ft | 92 kts | 203° |
| 2026-04-26 11:01 | 32.39109 | 34.86048 | 970 ft | 91 kts | 207° |
| 2026-04-26 11:01 | 32.38482 | 34.85814 | 917 ft | 87 kts | 193° |
| 2026-04-26 11:02 | 32.37880 | 34.85737 | 824 ft | 85 kts | 185° |
| 2026-04-26 11:02 | 32.37300 | 34.85697 | 778 ft | 83 kts | 188° |
| 2026-04-26 11:02 | 32.36735 | 34.85648 | 730 ft | 79 kts | 192° |
| 2026-04-26 11:02 | 32.36181 | 34.85551 | 664 ft | 81 kts | 193° |
| 2026-04-26 11:03 | 32.35652 | 34.85432 | 689 ft | 74 kts | 198° |
| 2026-04-26 11:03 | 32.35128 | 34.85315 | 681 ft | 76 kts | 188° |
| 2026-04-26 11:03 | 32.34590 | 34.85272 | 685 ft | 80 kts | 190° |
| 2026-04-26 11:03 | 32.34038 | 34.85173 | 827 ft | 83 kts | 199° |
| 2026-04-26 11:04 | 32.33474 | 34.85003 | 967 ft | 85 kts | 201° |
| 2026-04-26 11:04 | 32.32857 | 34.84774 | 941 ft | 92 kts | 193° |
| 2026-04-26 11:04 | 32.32204 | 34.84609 | 891 ft | 99 kts | 208° |
| 2026-04-26 11:04 | 32.31550 | 34.84400 | 861 ft | 96 kts | 196° |
| 2026-04-26 11:05 | 32.30913 | 34.84201 | 831 ft | 98 kts | 199° |
| 2026-04-26 11:05 | 32.30278 | 34.84013 | 915 ft | 91 kts | 195° |
| 2026-04-26 11:05 | 32.29651 | 34.83900 | 916 ft | 94 kts | 191° |
| 2026-04-26 11:05 | 32.28999 | 34.83700 | 1004 ft | 94 kts | 208° |
| 2026-04-26 11:06 | 32.28379 | 34.83425 | 889 ft | 91 kts | 202° |
| 2026-04-26 11:06 | 32.28009 | 34.83251 | 727 ft | 86 kts | 211° |
| 2026-04-26 11:06 | 32.27290 | 34.83044 | 672 ft | 83 kts | 190° |
| 2026-04-26 11:06 | 32.26678 | 34.82937 | 642 ft | 97 kts | 196° |
| 2026-04-26 11:07 | 32.26015 | 34.82829 | 719 ft | 101 kts | 189° |
| 2026-04-26 11:07 | 32.25316 | 34.82682 | 833 ft | 96 kts | 198° |
| 2026-04-26 11:07 | 32.24696 | 34.82458 | 1051 ft | 90 kts | 193° |
| 2026-04-26 11:07 | 32.24031 | 34.82184 | 876 ft | 103 kts | 200° |
| 2026-04-26 11:08 | 32.23355 | 34.81954 | 779 ft | 98 kts | 196° |
| 2026-04-26 11:08 | 32.22703 | 34.81781 | 776 ft | 92 kts | 195° |
| 2026-04-26 11:08 | 32.22139 | 34.81622 | 731 ft | 81 kts | 204° |
| 2026-04-26 11:08 | 32.21626 | 34.81440 | 687 ft | 76 kts | 204° |
| 2026-04-26 11:09 | 32.21061 | 34.81276 | 821 ft | 90 kts | 200° |
| 2026-04-26 11:09 | 32.20471 | 34.80967 | 807 ft | 91 kts | 212° |
| 2026-04-26 11:09 | 32.19924 | 34.80694 | 690 ft | 85 kts | 211° |
| 2026-04-26 11:09 | 32.19398 | 34.80503 | 690 ft | 77 kts | 202° |
| 2026-04-26 11:10 | 32.18861 | 34.80294 | 498 ft | 81 kts | 206° |
| 2026-04-26 11:10 | 32.18373 | 34.80051 | 433 ft | 72 kts | 205° |
| 2026-04-26 11:10 | 32.17904 | 34.79855 | 491 ft | 72 kts | 198° |
| 2026-04-26 11:10 | 32.17383 | 34.79713 | 511 ft | 82 kts | 193° |
| 2026-04-26 11:11 | 32.16795 | 34.79547 | 582 ft | 89 kts | 201° |
| 2026-04-26 11:11 | 32.16193 | 34.79398 | 656 ft | 93 kts | 198° |